Terminal Aerodrome Forecast
Issued by NWS Charleston, WV

Current Version | Previous Version | Graphics & Text | Print | Product List | Glossary On
Versions: 1 2 3 4 5 6 7 8 9 10 11 12 13 14 15 16 17 18 19 20 21 22
739
FTUS41 KRLX 232320
TAFCRW
TAF
KCRW 232320Z 2400/2424 00000KT P6SM SCT060
      TEMPO 2401/2403 BKN060
     FM240600 00000KT 4SM BR SKC
     FM240800 00000KT 1/4SM FG VV001
     FM241200 00000KT 2SM BR BKN001
     FM241330 00000KT 5SM BR SCT002
     FM241400 22003KT P6SM SCT060=

USA.gov is the U.S. government's official web portal to all federal, state and local government web resources and services.